Time;durP1;ratioP1;P1;durP2;ratioP2;P2;SDS_P1;SDS_P2;PMS_P1;PMS_P2;Temp;Humidity;BMP_temperature;BMP_pressure;BME280_temperature;BME280_humidity;BME280_pressure;Samples;Min_cycle;Max_cycle;Signal;HPM_P1;HPM_P2
2022/05/04 00:00:04;;;;;;;9.03;4.67;;;8.70;99.90;;;;;;4960197;29;20317;-79
2022/05/04 00:02:31;;;;;;;8.87;4.40;;;8.70;99.90;;;;;;4960509;28;20214;-79
2022/05/04 00:04:58;;;;;;;9.93;4.00;;;8.60;99.90;;;;;;4960213;29;20294;-79
2022/05/04 00:07:26;;;;;;;12.10;4.70;;;8.60;99.90;;;;;;4959928;28;20267;-79
2022/05/04 00:09:55;;;;;;;9.43;4.40;;;8.40;99.90;;;;;;4959475;28;20266;-79
2022/05/04 00:12:23;;;;;;;7.80;4.63;;;8.30;99.90;;;;;;4959647;28;20238;-79
2022/05/04 00:14:49;;;;;;;8.27;4.80;;;8.50;99.90;;;;;;4959591;29;20289;-79
2022/05/04 00:17:16;;;;;;;8.30;4.43;;;8.40;99.90;;;;;;4959803;29;20224;-79
2022/05/04 00:19:43;;;;;;;10.27;4.80;;;8.50;99.90;;;;;;4959311;28;20206;-80
2022/05/04 00:22:10;;;;;;;10.13;4.23;;;8.50;99.90;;;;;;4959452;29;20237;-79
2022/05/04 00:24:38;;;;;;;10.83;4.63;;;8.30;99.90;;;;;;4959376;29;20249;-79
2022/05/04 00:27:05;;;;;;;10.40;5.40;;;8.20;99.90;;;;;;4959677;29;20731;-80
2022/05/04 00:29:32;;;;;;;9.87;4.53;;;8.20;99.90;;;;;;4959754;29;20206;-79
2022/05/04 00:31:59;;;;;;;10.73;4.53;;;8.00;99.90;;;;;;4959640;28;20631;-79
2022/05/04 00:34:26;;;;;;;8.47;4.37;;;8.10;99.90;;;;;;4959824;29;20238;-79
2022/05/04 00:36:53;;;;;;;10.73;5.20;;;8.30;99.90;;;;;;4959962;29;20245;-80
2022/05/04 00:39:20;;;;;;;10.53;4.97;;;8.20;99.90;;;;;;4959725;28;20214;-80
2022/05/04 00:41:48;;;;;;;10.73;5.37;;;8.30;99.90;;;;;;4960077;29;20305;-80
2022/05/04 00:44:15;;;;;;;10.17;4.80;;;8.00;99.90;;;;;;4960403;29;20214;-80
2022/05/04 00:46:42;;;;;;;10.47;5.23;;;7.90;99.90;;;;;;4959861;28;20217;-79
2022/05/04 00:49:09;;;;;;;9.00;5.27;;;7.80;99.90;;;;;;4960483;29;20290;-80
2022/05/04 00:51:37;;;;;;;9.10;5.53;;;7.80;99.90;;;;;;4959528;29;20208;-79
2022/05/04 00:54:04;;;;;;;9.93;4.97;;;7.70;99.90;;;;;;4959985;29;20241;-80
2022/05/04 00:56:33;;;;;;;11.10;5.70;;;7.90;99.90;;;;;;4959585;29;20273;-80
2022/05/04 00:59:01;;;;;;;11.87;5.60;;;7.90;99.90;;;;;;4960076;29;20225;-80
2022/05/04 01:01:29;;;;;;;11.43;5.33;;;7.60;99.90;;;;;;4959993;29;20222;-80
2022/05/04 01:03:56;;;;;;;12.37;5.70;;;7.50;99.90;;;;;;4959673;29;20285;-81
2022/05/04 01:06:24;;;;;;;12.57;6.00;;;7.50;99.90;;;;;;4958874;29;20747;-80
2022/05/04 01:08:52;;;;;;;12.97;4.90;;;7.50;99.90;;;;;;4959906;28;20305;-80
2022/05/04 01:11:20;;;;;;;8.27;4.77;;;7.60;99.90;;;;;;4960311;28;20238;-79
2022/05/04 01:13:59;;;;;;;10.30;5.07;;;7.70;99.90;;;;;;4959685;28;20301;-80
2022/05/04 01:16:27;;;;;;;11.23;4.67;;;7.70;99.90;;;;;;4959137;29;20308;-80
2022/05/04 01:18:54;;;;;;;12.10;4.97;;;7.70;99.90;;;;;;4960134;28;20241;-80
2022/05/04 01:21:21;;;;;;;13.33;5.80;;;7.60;99.90;;;;;;4960124;29;20241;-80
2022/05/04 01:23:50;;;;;;;11.27;4.77;;;7.60;99.90;;;;;;4960189;29;20309;-80
2022/05/04 01:26:17;;;;;;;12.50;5.03;;;7.70;99.90;;;;;;4960965;29;20318;-80
2022/05/04 01:28:44;;;;;;;13.77;5.73;;;7.70;99.90;;;;;;4961035;28;20599;-80
2022/05/04 01:31:11;;;;;;;14.70;5.77;;;7.70;99.90;;;;;;4960806;28;20631;-80
2022/05/04 01:33:39;;;;;;;14.80;5.20;;;7.80;99.90;;;;;;4960792;28;20233;-80
2022/05/04 01:36:07;;;;;;;10.33;4.53;;;7.60;99.90;;;;;;4961035;28;20746;-80
2022/05/04 01:38:34;;;;;;;8.50;4.60;;;7.50;99.90;;;;;;4961156;29;20199;-79
2022/05/04 01:41:03;;;;;;;12.83;4.90;;;7.60;99.90;;;;;;4960661;29;20326;-80
2022/05/04 01:43:30;;;;;;;16.87;5.83;;;7.60;99.90;;;;;;4960649;29;20300;-80
2022/05/04 01:45:58;;;;;;;11.30;5.10;;;7.40;99.90;;;;;;4958496;29;20317;-80
2022/05/04 01:48:24;;;;;;;11.70;5.17;;;7.50;99.90;;;;;;4958336;29;20245;-79
2022/05/04 01:50:51;;;;;;;13.23;5.53;;;7.40;99.90;;;;;;4958887;28;20695;-80
2022/05/04 01:53:18;;;;;;;10.90;5.10;;;7.40;99.90;;;;;;4958761;29;20220;-79
2022/05/04 01:55:47;;;;;;;9.37;5.07;;;7.20;99.90;;;;;;4958820;28;20250;-80
2022/05/04 01:58:15;;;;;;;11.50;5.43;;;7.10;99.90;;;;;;4958775;29;20210;-80
2022/05/04 02:00:42;;;;;;;13.03;5.87;;;7.10;99.90;;;;;;4958282;29;20325;-79
2022/05/04 02:03:09;;;;;;;8.03;5.00;;;7.00;99.90;;;;;;4959030;29;20238;-80
2022/05/04 02:05:35;;;;;;;11.50;5.83;;;6.90;99.90;;;;;;4959284;28;20258;-79
2022/05/04 02:08:02;;;;;;;9.67;5.10;;;6.90;99.90;;;;;;4961871;29;20209;-80
2022/05/04 02:10:29;;;;;;;11.93;6.53;;;6.90;99.90;;;;;;4962169;28;20653;-80
2022/05/04 02:12:56;;;;;;;12.97;5.87;;;7.00;99.90;;;;;;4961969;28;20293;-79
2022/05/04 02:15:24;;;;;;;12.40;5.87;;;6.90;99.90;;;;;;4961555;29;20226;-80
2022/05/04 02:17:51;;;;;;;11.57;5.80;;;6.80;99.90;;;;;;4961139;29;20285;-80
2022/05/04 02:20:18;;;;;;;14.13;6.30;;;6.80;99.90;;;;;;4961445;29;20293;-80
2022/05/04 02:22:45;;;;;;;10.70;6.00;;;6.90;99.90;;;;;;4961891;29;20289;-80
2022/05/04 02:25:12;;;;;;;10.37;6.00;;;6.80;99.90;;;;;;4961361;28;20268;-80
2022/05/04 02:27:39;;;;;;;12.20;5.97;;;7.00;99.90;;;;;;4961684;28;20258;-80
2022/05/04 02:30:07;;;;;;;23.10;6.07;;;7.00;99.90;;;;;;4960239;29;20206;-80
2022/05/04 02:32:35;;;;;;;12.43;7.10;;;6.70;99.90;;;;;;4961185;29;20216;-80
2022/05/04 02:37:55;;;;;;;14.53;6.43;;;6.60;99.90;;;;;;4960814;29;20743;-80
2022/05/04 02:40:23;;;;;;;13.57;5.60;;;6.50;99.90;;;;;;4960297;29;20303;-79
2022/05/04 02:42:49;;;;;;;13.57;6.00;;;6.50;99.90;;;;;;4960291;29;20559;-80
2022/05/04 02:45:16;;;;;;;11.43;6.10;;;6.40;99.90;;;;;;4959396;29;20286;-80
2022/05/04 02:47:45;;;;;;;14.80;7.00;;;6.40;99.90;;;;;;4959711;29;20262;-80
2022/05/04 02:50:11;;;;;;;10.90;5.90;;;6.50;99.90;;;;;;4958162;28;20242;-80
2022/05/04 02:52:38;;;;;;;11.83;6.03;;;6.40;99.90;;;;;;4958380;28;20297;-79
2022/05/04 02:55:06;;;;;;;11.53;6.03;;;6.50;99.90;;;;;;4958177;29;20245;-79
2022/05/04 02:57:33;;;;;;;12.70;6.07;;;6.60;99.90;;;;;;4958074;29;20249;-80
2022/05/04 03:00:00;;;;;;;13.40;6.43;;;6.60;99.90;;;;;;4957646;28;20241;-79
2022/05/04 03:02:28;;;;;;;17.93;6.97;;;6.80;99.90;;;;;;4957435;29;20602;-79
2022/05/04 03:04:58;;;;;;;14.10;5.60;;;6.70;99.90;;;;;;4956019;29;20223;-80
2022/05/04 03:07:26;;;;;;;11.80;5.80;;;6.50;99.90;;;;;;4956195;29;20234;-80
2022/05/04 03:09:53;;;;;;;15.10;6.17;;;6.50;99.90;;;;;;4957376;29;20558;-79
2022/05/04 03:12:20;;;;;;;12.13;5.63;;;6.40;99.90;;;;;;4962551;29;20230;-80
2022/05/04 03:14:46;;;;;;;14.33;7.10;;;6.60;99.90;;;;;;4961434;28;20234;-79
2022/05/04 03:17:13;;;;;;;15.93;6.70;;;6.20;99.90;;;;;;4960353;28;20317;-79
2022/05/04 03:19:40;;;;;;;17.97;7.27;;;6.30;99.90;;;;;;4961381;29;20239;-79
2022/05/04 03:22:09;;;;;;;14.97;5.80;;;6.50;99.90;;;;;;4961328;28;20675;-80
2022/05/04 03:24:35;;;;;;;11.40;6.10;;;6.40;99.90;;;;;;4961200;29;20692;-79
2022/05/04 03:27:03;;;;;;;13.43;6.37;;;6.40;99.90;;;;;;4961476;28;20217;-79
2022/05/04 03:29:30;;;;;;;19.23;7.20;;;6.30;99.90;;;;;;4961124;28;20261;-79
2022/05/04 03:31:57;;;;;;;15.07;6.87;;;6.20;99.90;;;;;;4961349;29;20270;-79
2022/05/04 03:34:24;;;;;;;14.73;6.20;;;6.30;99.90;;;;;;4960897;29;20230;-80
2022/05/04 03:36:50;;;;;;;17.90;6.17;;;6.10;99.90;;;;;;4961009;29;20213;-80
2022/05/04 03:39:19;;;;;;;14.30;6.33;;;6.20;99.90;;;;;;4960714;29;20301;-80
2022/05/04 03:41:46;;;;;;;14.17;6.20;;;6.30;99.90;;;;;;4960322;29;20222;-80
2022/05/04 03:44:13;;;;;;;13.17;6.57;;;6.30;99.90;;;;;;4961458;29;20289;-79
2022/05/04 03:46:44;;;;;;;15.13;6.50;;;6.20;99.90;;;;;;4961060;29;20242;-79
2022/05/04 03:49:12;;;;;;;17.97;6.50;;;6.30;99.90;;;;;;4961266;28;20665;-79
2022/05/04 03:51:39;;;;;;;15.20;6.10;;;6.20;99.90;;;;;;4960996;29;20285;-79
2022/05/04 03:54:06;;;;;;;9.30;6.03;;;6.40;99.90;;;;;;4961638;28;20282;-79
2022/05/04 03:56:34;;;;;;;14.37;7.00;;;6.30;99.90;;;;;;4961488;29;20214;-79
2022/05/04 03:59:02;;;;;;;11.47;5.93;;;6.30;99.90;;;;;;4962769;29;20266;-80
2022/05/04 04:01:29;;;;;;;11.50;6.00;;;6.40;99.90;;;;;;4961329;28;20285;-79
2022/05/04 04:03:56;;;;;;;16.77;7.60;;;6.60;99.90;;;;;;4961447;28;20289;-79
2022/05/04 04:06:23;;;;;;;13.17;6.33;;;6.70;99.90;;;;;;4961699;29;20245;-79
2022/05/04 04:08:50;;;;;;;14.67;6.77;;;6.70;99.90;;;;;;4961494;29;20211;-80
2022/05/04 04:11:17;;;;;;;12.50;6.13;;;6.90;99.90;;;;;;4961567;29;20257;-80
2022/05/04 04:13:45;;;;;;;13.73;6.63;;;7.00;99.90;;;;;;4961211;29;20289;-79
2022/05/04 04:16:13;;;;;;;11.63;5.77;;;7.10;99.90;;;;;;4960480;28;20244;-79
2022/05/04 04:18:40;;;;;;;13.60;6.47;;;7.20;99.90;;;;;;4961363;29;20206;-79
2022/05/04 04:23:57;;;;;;;12.50;6.97;;;7.30;99.90;;;;;;4955704;29;20199;-79
2022/05/04 04:26:24;;;;;;;16.60;6.90;;;7.50;99.90;;;;;;4961373;29;20233;-79
2022/05/04 04:28:52;;;;;;;13.63;6.20;;;7.50;99.90;;;;;;4960296;28;20282;-80
2022/05/04 04:31:19;;;;;;;13.77;6.60;;;7.50;99.90;;;;;;4960105;29;20557;-80
2022/05/04 04:33:45;;;;;;;12.10;6.37;;;7.40;99.90;;;;;;4960291;28;20202;-80
2022/05/04 04:36:12;;;;;;;12.83;6.70;;;7.50;99.90;;;;;;4960672;29;20261;-80
2022/05/04 04:38:39;;;;;;;12.00;6.20;;;7.60;99.90;;;;;;4960792;28;20285;-80
2022/05/04 04:41:06;;;;;;;14.53;6.80;;;8.20;99.90;;;;;;4959820;29;20218;-80
2022/05/04 04:43:33;;;;;;;17.63;6.53;;;8.30;99.90;;;;;;4961263;28;20216;-79
2022/05/04 04:46:01;;;;;;;14.27;6.77;;;8.40;99.90;;;;;;4960927;28;20332;-80
2022/05/04 04:48:28;;;;;;;11.57;6.10;;;8.70;99.90;;;;;;4960962;29;20274;-80
2022/05/04 04:50:55;;;;;;;18.87;6.47;;;8.70;99.90;;;;;;4957639;28;20285;-80
2022/05/04 04:53:22;;;;;;;15.53;6.93;;;8.80;99.90;;;;;;4958559;29;20218;-80
2022/05/04 04:55:48;;;;;;;10.83;5.93;;;8.90;99.90;;;;;;4958758;29;20354;-80
2022/05/04 04:58:16;;;;;;;10.33;5.87;;;9.20;99.90;;;;;;4959184;28;20262;-80
2022/05/04 05:00:42;;;;;;;11.57;5.90;;;9.50;99.90;;;;;;4958649;28;20293;-80
2022/05/04 05:03:11;;;;;;;10.57;6.33;;;9.70;99.90;;;;;;4959042;29;20226;-80
2022/05/04 05:05:42;;;;;;;14.20;6.30;;;10.10;99.90;;;;;;4958792;28;20262;-80
2022/05/04 05:08:09;;;;;;;11.60;6.37;;;10.50;99.90;;;;;;4959009;29;20210;-80
2022/05/04 05:10:36;;;;;;;12.73;6.73;;;10.00;99.90;;;;;;4958675;28;20645;-80
2022/05/04 05:13:04;;;;;;;10.57;5.70;;;10.20;99.90;;;;;;4959242;29;20206;-80
2022/05/04 05:18:17;;;;;;;9.97;4.37;;;10.90;99.90;;;;;;4958230;29;20205;-80
2022/05/04 05:20:44;;;;;;;13.77;5.13;;;10.60;95.50;;;;;;4958661;29;20278;-80
2022/05/04 05:23:11;;;;;;;13.97;5.20;;;10.70;96.60;;;;;;4958835;29;20313;-80
2022/05/04 05:25:38;;;;;;;12.43;4.40;;;10.70;93.70;;;;;;4959172;29;20234;-80
2022/05/04 05:28:06;;;;;;;11.37;4.70;;;11.00;92.20;;;;;;4959274;29;20206;-80
2022/05/04 05:30:32;;;;;;;12.90;5.10;;;10.90;88.20;;;;;;4959108;29;20202;-80
2022/05/04 05:32:59;;;;;;;13.37;4.83;;;11.00;85.30;;;;;;4958521;28;20633;-80
2022/05/04 05:35:27;;;;;;;13.40;4.60;;;10.80;89.20;;;;;;4960331;28;20313;-80
2022/05/04 05:37:54;;;;;;;16.93;4.20;;;10.20;94.90;;;;;;4958750;28;20294;-80
2022/05/04 05:40:21;;;;;;;18.10;5.20;;;10.30;93.40;;;;;;4959777;28;20220;-80
2022/05/04 05:42:48;;;;;;;19.37;4.90;;;9.70;97.10;;;;;;4962708;28;20230;-80
2022/05/04 05:45:15;;;;;;;14.80;5.20;;;9.80;99.90;;;;;;4962851;29;20280;-80
2022/05/04 05:47:42;;;;;;;17.57;5.03;;;9.80;99.90;;;;;;4962062;29;20672;-80
2022/05/04 05:50:10;;;;;;;15.13;5.17;;;9.50;99.90;;;;;;4962187;28;20220;-79
2022/05/04 05:52:38;;;;;;;24.83;5.33;;;9.40;99.90;;;;;;4962079;28;20206;-79
2022/05/04 05:55:06;;;;;;;13.83;5.00;;;9.70;99.90;;;;;;4961742;29;20231;-79
2022/05/04 05:57:33;;;;;;;21.10;5.17;;;9.50;99.90;;;;;;4962284;28;20289;-79
2022/05/04 06:00:00;;;;;;;15.97;4.60;;;9.70;99.90;;;;;;4961403;29;20203;-79
2022/05/04 06:02:33;;;;;;;17.90;6.07;;;9.90;99.90;;;;;;4963145;29;20233;-80
2022/05/04 06:05:00;;;;;;;14.57;4.60;;;9.30;99.90;;;;;;4961382;29;20234;-79
2022/05/04 06:07:27;;;;;;;14.03;5.23;;;10.00;99.90;;;;;;4961487;28;20210;-80
2022/05/04 06:09:55;;;;;;;16.50;5.80;;;9.90;99.20;;;;;;4960195;29;20264;-79
2022/05/04 06:12:22;;;;;;;15.53;4.63;;;10.40;99.90;;;;;;4960426;28;20359;-79
2022/05/04 06:14:49;;;;;;;15.20;4.67;;;10.10;95.20;;;;;;4959949;28;20294;-79
2022/05/04 06:17:15;;;;;;;13.87;5.50;;;10.80;94.90;;;;;;4960091;29;20293;-80
2022/05/04 06:19:42;;;;;;;12.90;5.20;;;10.90;91.30;;;;;;4959081;29;20293;-80
2022/05/04 06:22:09;;;;;;;14.40;4.70;;;12.10;74.90;;;;;;4959135;29;20317;-79
2022/05/04 06:24:36;;;;;;;18.67;5.20;;;11.10;83.60;;;;;;4958459;29;20226;-80
2022/05/04 06:27:04;;;;;;;18.00;4.87;;;10.70;91.30;;;;;;4957934;29;20294;-80
2022/05/04 06:35:04;;;;;;;12.83;4.40;;;10.30;97.90;;;;;;4956446;29;20594;-80
2022/05/04 06:37:31;;;;;;;11.80;3.70;;;10.10;99.90;;;;;;4958321;28;20202;-80
2022/05/04 06:39:58;;;;;;;11.27;4.00;;;10.10;96.20;;;;;;4963506;29;20225;-79
2022/05/04 06:42:27;;;;;;;8.53;4.47;;;10.20;97.60;;;;;;4962753;28;20252;-80
2022/05/04 06:44:54;;;;;;;13.70;4.57;;;10.50;98.00;;;;;;4961793;29;20712;-79
2022/05/04 06:47:20;;;;;;;15.40;4.90;;;10.70;93.70;;;;;;4963520;28;20194;-79
2022/05/04 06:49:47;;;;;;;12.30;4.27;;;11.00;91.20;;;;;;4961815;29;20301;-79
2022/05/04 06:52:14;;;;;;;11.57;4.17;;;11.20;91.10;;;;;;4961208;28;20427;-80
2022/05/04 06:54:42;;;;;;;11.03;4.30;;;11.20;90.60;;;;;;4962209;28;20257;-79
2022/05/04 06:57:09;;;;;;;13.13;4.33;;;11.10;89.90;;;;;;4962645;29;20202;-80
2022/05/04 06:59:38;;;;;;;12.33;4.60;;;11.50;86.60;;;;;;4962251;28;20210;-80
2022/05/04 07:02:05;;;;;;;13.60;5.13;;;11.70;80.90;;;;;;4962701;28;20210;-80
2022/05/04 07:04:32;;;;;;;15.47;5.20;;;11.50;86.60;;;;;;4962830;29;20237;-80
2022/05/04 07:06:59;;;;;;;14.30;5.00;;;11.40;91.40;;;;;;4962717;29;20210;-80
2022/05/04 07:09:26;;;;;;;16.50;5.40;;;11.10;87.70;;;;;;4961443;29;20680;-80
2022/05/04 07:11:53;;;;;;;20.07;4.87;;;11.40;89.10;;;;;;4962137;28;20238;-80
2022/05/04 07:14:20;;;;;;;11.90;5.27;;;11.00;91.60;;;;;;4962273;29;20294;-79
2022/05/04 07:16:48;;;;;;;14.83;4.80;;;11.00;93.10;;;;;;4961960;29;20560;-79
2022/05/04 07:19:15;;;;;;;13.60;5.10;;;11.10;92.60;;;;;;4961729;29;20221;-79
2022/05/04 07:21:42;;;;;;;14.60;4.60;;;11.20;93.60;;;;;;4963128;28;20573;-79
2022/05/04 07:24:10;;;;;;;11.97;4.47;;;11.20;91.70;;;;;;4962403;29;20658;-80
2022/05/04 07:26:37;;;;;;;12.77;5.10;;;11.40;94.20;;;;;;4962805;28;20681;-80
2022/05/04 07:29:04;;;;;;;11.67;5.50;;;11.60;86.70;;;;;;4962624;28;20266;-80
2022/05/04 07:31:31;;;;;;;12.43;4.77;;;11.10;91.10;;;;;;4962112;28;20550;-79
2022/05/04 07:34:00;;;;;;;12.67;4.77;;;11.20;91.20;;;;;;4961206;29;20294;-80
2022/05/04 07:36:26;;;;;;;13.27;4.97;;;11.50;91.40;;;;;;4961958;29;20242;-79
2022/05/04 07:38:53;;;;;;;12.20;5.10;;;11.60;86.50;;;;;;4963756;29;20213;-80
2022/05/04 07:44:05;;;;;;;17.20;5.03;;;11.50;90.00;;;;;;4964520;29;20233;-79
2022/05/04 07:46:31;;;;;;;15.30;4.83;;;11.40;90.20;;;;;;4963273;28;20237;-80
2022/05/04 07:49:00;;;;;;;12.10;4.67;;;11.40;89.20;;;;;;4962608;28;20289;-80
2022/05/04 07:51:27;;;;;;;9.77;4.53;;;11.60;88.70;;;;;;4962914;28;20753;-80
2022/05/04 07:53:53;;;;;;;12.23;4.70;;;11.80;90.00;;;;;;4962253;29;20289;-80
2022/05/04 07:56:20;;;;;;;14.27;4.70;;;11.60;89.60;;;;;;4962241;29;20312;-79
2022/05/04 07:58:47;;;;;;;11.20;4.83;;;11.70;83.70;;;;;;4961860;28;20237;-80
2022/05/04 08:04:18;;;;;;;15.20;5.03;;;11.90;83.70;;;;;;4962246;28;20232;-79
2022/05/04 08:06:45;;;;;;;13.27;4.93;;;11.80;85.80;;;;;;4961802;29;20232;-80
2022/05/04 08:09:12;;;;;;;12.97;4.50;;;12.10;81.10;;;;;;4961813;28;20215;-80
2022/05/04 08:11:39;;;;;;;12.60;4.63;;;12.30;78.10;;;;;;4962542;28;20647;-80
2022/05/04 08:14:06;;;;;;;8.87;4.63;;;12.10;79.00;;;;;;4961891;29;20226;-80
2022/05/04 08:16:33;;;;;;;12.63;4.37;;;12.00;74.20;;;;;;4962172;28;20218;-80
2022/05/04 08:19:03;;;;;;;10.87;4.10;;;11.90;73.40;;;;;;4962068;29;20692;-80
2022/05/04 08:21:30;;;;;;;9.60;4.20;;;11.90;77.10;;;;;;4962129;28;20203;-80
2022/05/04 08:23:57;;;;;;;46.40;6.40;;;12.10;80.40;;;;;;4962073;29;20260;-80
2022/05/04 08:26:24;;;;;;;13.03;5.23;;;12.40;72.50;;;;;;4962256;28;20226;-79
2022/05/04 08:28:51;;;;;;;16.60;5.27;;;12.40;73.00;;;;;;4962614;29;20669;-80
2022/05/04 08:31:18;;;;;;;13.13;4.70;;;12.70;72.60;;;;;;4962231;28;20214;-80
2022/05/04 08:33:45;;;;;;;15.97;4.73;;;12.10;69.80;;;;;;4963116;28;20234;-80
2022/05/04 08:36:13;;;;;;;8.73;4.43;;;12.50;75.60;;;;;;4961104;28;20226;-80
2022/05/04 08:38:40;;;;;;;11.40;4.63;;;12.50;68.40;;;;;;4961593;29;20716;-80
2022/05/04 08:41:08;;;;;;;10.97;5.00;;;12.60;71.60;;;;;;4961511;28;20292;-79
2022/05/04 08:43:35;;;;;;;13.83;4.77;;;12.80;70.00;;;;;;4961844;29;20250;-79
2022/05/04 08:46:05;;;;;;;12.00;4.17;;;12.40;68.70;;;;;;4963400;29;20285;-80
2022/05/04 08:48:33;;;;;;;13.67;4.67;;;12.40;69.20;;;;;;4961781;28;20225;-80
2022/05/04 08:51:02;;;;;;;12.57;4.83;;;12.80;69.90;;;;;;4960692;29;20214;-79
2022/05/04 08:53:31;;;;;;;9.17;4.33;;;12.80;65.70;;;;;;4961681;29;20228;-80
2022/05/04 08:55:59;;;;;;;7.87;4.07;;;13.40;61.20;;;;;;4961317;29;20277;-80
2022/05/04 08:58:26;;;;;;;12.00;4.60;;;13.20;59.40;;;;;;4961293;29;20221;-79
2022/05/04 09:00:53;;;;;;;11.10;4.57;;;13.60;59.90;;;;;;4960972;29;20202;-80
2022/05/04 09:03:20;;;;;;;10.73;4.40;;;14.30;55.10;;;;;;4961693;29;20309;-80
2022/05/04 09:05:49;;;;;;;13.30;5.00;;;14.20;56.80;;;;;;4962795;29;20261;-80
2022/05/04 09:08:16;;;;;;;10.77;4.23;;;14.00;57.00;;;;;;4962176;29;20306;-80
2022/05/04 09:10:45;;;;;;;13.33;4.93;;;14.00;56.10;;;;;;4960310;28;20242;-80
2022/05/04 09:13:12;;;;;;;10.90;4.40;;;14.20;54.40;;;;;;4960390;29;20599;-80
2022/05/04 09:15:41;;;;;;;13.37;5.00;;;14.30;53.50;;;;;;4959793;28;20258;-80
2022/05/04 09:18:10;;;;;;;11.53;4.77;;;14.40;52.30;;;;;;4963038;29;20206;-80
2022/05/04 09:20:47;;;;;;;12.40;4.90;;;15.00;49.50;;;;;;4963511;29;20213;-80
2022/05/04 09:23:17;;;;;;;10.13;4.73;;;15.00;48.00;;;;;;4962884;29;20245;-80
2022/05/04 09:25:45;;;;;;;9.67;4.67;;;15.00;47.70;;;;;;4963003;28;20356;-80
2022/05/04 09:28:14;;;;;;;14.33;5.07;;;15.10;48.60;;;;;;4962063;29;20293;-79
2022/05/04 09:30:46;;;;;;;9.77;4.83;;;15.10;48.50;;;;;;4962065;29;20306;-80
2022/05/04 09:33:18;;;;;;;12.17;5.03;;;15.20;45.10;;;;;;4961667;28;20202;-80
2022/05/04 09:35:45;;;;;;;10.37;4.60;;;15.20;46.40;;;;;;4961573;29;20309;-79
2022/05/04 09:46:37;;;;;;;11.27;5.30;;;15.80;42.70;;;;;;4961045;29;20209;-80
2022/05/04 09:49:10;;;;;;;11.00;5.17;;;15.60;41.50;;;;;;4959292;28;20210;-80
2022/05/04 09:51:39;;;;;;;12.20;5.32;;;15.80;40.80;;;;;;4959446;29;20206;-80
2022/05/04 09:54:20;;;;;;;13.33;4.87;;;16.00;38.10;;;;;;4958186;29;20286;-80
2022/05/04 09:56:51;;;;;;;9.32;4.43;;;16.30;38.20;;;;;;4958155;29;20242;-80
2022/05/04 09:59:20;;;;;;;11.93;4.65;;;16.80;35.10;;;;;;4957193;29;20285;-80
2022/05/04 10:01:47;;;;;;;10.60;4.82;;;16.70;37.50;;;;;;4957115;28;20203;-81
2022/05/04 10:04:14;;;;;;;13.45;5.05;;;16.10;36.40;;;;;;4959932;28;20226;-80
2022/05/04 10:06:41;;;;;;;11.07;4.97;;;16.00;40.60;;;;;;4963105;29;20245;-80
2022/05/04 10:09:09;;;;;;;9.73;5.13;;;16.50;36.20;;;;;;4962438;28;20293;-80
2022/05/04 10:11:36;;;;;;;7.57;4.22;;;16.50;34.60;;;;;;4964409;28;20463;-80
2022/05/04 10:14:07;;;;;;;9.68;4.45;;;16.00;35.30;;;;;;4962762;28;20274;-80
2022/05/04 10:16:41;;;;;;;12.50;5.00;;;16.60;34.50;;;;;;4962534;29;20214;-80
2022/05/04 10:19:12;;;;;;;10.82;4.68;;;17.50;31.80;;;;;;4962721;29;20282;-80
2022/05/04 10:21:43;;;;;;;11.43;4.60;;;16.60;36.60;;;;;;4963121;29;20216;-80
2022/05/04 10:24:11;;;;;;;10.57;4.07;;;16.50;34.80;;;;;;4961940;29;20218;-80
2022/05/04 10:26:40;;;;;;;11.90;5.07;;;16.70;34.30;;;;;;4962266;28;20283;-80
2022/05/04 10:32:29;;;;;;;12.63;6.03;;;16.80;31.40;;;;;;4962611;29;20733;-80
2022/05/04 10:35:28;;;;;;;10.20;5.50;;;16.50;35.70;;;;;;4962853;29;20258;-80
2022/05/04 10:38:07;;;;;;;10.38;5.15;;;16.60;33.40;;;;;;4936693;29;20214;-80
2022/05/04 10:40:36;;;;;;;11.98;5.47;;;16.90;31.20;;;;;;4962298;29;20245;-80
2022/05/04 10:43:05;;;;;;;12.45;5.28;;;17.60;31.60;;;;;;4962502;28;20232;-81
2022/05/04 10:45:35;;;;;;;10.52;5.20;;;18.20;27.90;;;;;;4961180;29;20272;-80
2022/05/04 10:48:23;;;;;;;13.63;4.78;;;17.40;29.50;;;;;;4962397;29;20289;-80
2022/05/04 10:50:52;;;;;;;7.63;4.40;;;16.70;31.50;;;;;;4960786;29;20210;-80
2022/05/04 10:53:20;;;;;;;11.40;4.72;;;17.60;29.60;;;;;;4962418;28;20206;-81
2022/05/04 10:55:56;;;;;;;10.88;5.10;;;17.10;31.20;;;;;;4962993;28;20237;-80
2022/05/04 10:58:37;;;;;;;9.10;4.97;;;16.80;31.30;;;;;;4962745;29;20217;-81
2022/05/04 11:01:09;;;;;;;13.80;5.55;;;16.80;32.90;;;;;;4961439;29;20252;-80
2022/05/04 11:03:38;;;;;;;10.85;5.53;;;17.00;32.50;;;;;;4961460;29;20233;-80
2022/05/04 11:06:09;;;;;;;10.95;5.05;;;17.40;30.00;;;;;;4960619;29;20226;-80
2022/05/04 11:08:36;;;;;;;8.48;4.72;;;17.80;31.80;;;;;;4960393;29;20212;-80
2022/05/04 11:11:04;;;;;;;12.55;5.90;;;17.80;30.10;;;;;;4960727;29;20570;-81
2022/05/04 11:13:31;;;;;;;9.65;4.97;;;17.70;31.40;;;;;;4960770;29;20590;-81
2022/05/04 11:16:01;;;;;;;15.63;5.60;;;17.90;28.80;;;;;;4960659;28;20245;-81
2022/05/04 11:18:30;;;;;;;9.27;5.25;;;17.80;31.50;;;;;;4961115;29;20212;-80
2022/05/04 11:20:57;;;;;;;13.68;5.65;;;17.40;30.00;;;;;;4960381;28;20217;-80
2022/05/04 11:23:24;;;;;;;12.85;5.88;;;17.30;30.00;;;;;;4961012;29;20313;-80
2022/05/04 11:25:51;;;;;;;10.18;5.28;;;17.20;29.60;;;;;;4960445;29;20233;-80
2022/05/04 11:28:20;;;;;;;11.05;5.30;;;17.30;30.00;;;;;;4961048;28;20658;-80
2022/05/04 11:30:47;;;;;;;13.40;5.60;;;17.40;29.40;;;;;;4960603;28;20214;-80
2022/05/04 11:33:15;;;;;;;12.48;5.53;;;17.80;29.90;;;;;;4961016;29;20712;-81
2022/05/04 11:35:44;;;;;;;12.60;5.32;;;17.90;26.90;;;;;;4961030;29;20305;-80
2022/05/04 11:38:18;;;;;;;10.15;5.85;;;18.10;25.80;;;;;;4961479;28;20297;-81
2022/05/04 11:40:46;;;;;;;11.07;5.35;;;18.20;29.20;;;;;;4961223;29;20269;-80
2022/05/04 11:43:22;;;;;;;12.20;5.47;;;17.80;28.80;;;;;;4960640;28;20217;-80
2022/05/04 11:45:50;;;;;;;12.00;5.35;;;17.90;28.20;;;;;;4961699;29;20304;-80
2022/05/04 11:48:18;;;;;;;12.23;5.60;;;18.60;25.50;;;;;;4960996;29;20244;-80
2022/05/04 11:50:47;;;;;;;14.00;6.00;;;17.80;27.70;;;;;;4960877;28;20210;-80
2022/05/04 11:53:14;;;;;;;9.88;5.68;;;17.60;28.10;;;;;;4961329;29;20203;-80
2022/05/04 11:55:41;;;;;;;13.80;5.45;;;18.30;27.30;;;;;;4959869;28;20322;-81
2022/05/04 11:58:10;;;;;;;10.98;5.10;;;18.50;25.50;;;;;;4960998;28;20645;-81
2022/05/04 12:00:37;;;;;;;9.40;5.53;;;17.70;28.00;;;;;;4960716;29;20225;-80
2022/05/04 12:03:05;;;;;;;10.48;5.22;;;17.70;28.50;;;;;;4961161;29;20523;-80
2022/05/04 12:05:33;;;;;;;10.82;5.80;;;17.60;29.00;;;;;;4960410;28;20242;-81
2022/05/04 12:08:01;;;;;;;13.93;6.03;;;17.80;29.00;;;;;;4961418;28;20580;-81
2022/05/04 12:10:30;;;;;;;11.25;5.50;;;18.30;29.00;;;;;;4960050;29;20289;-81
2022/05/04 12:12:58;;;;;;;10.68;5.57;;;18.80;26.10;;;;;;4959456;29;20345;-81
2022/05/04 12:15:27;;;;;;;11.65;5.25;;;18.30;26.00;;;;;;4960300;28;20254;-81
2022/05/04 12:17:59;;;;;;;10.18;5.43;;;19.20;26.70;;;;;;4959970;28;20289;-81
2022/05/04 12:20:26;;;;;;;9.48;5.38;;;18.80;24.20;;;;;;4959259;29;20700;-80
2022/05/04 12:22:54;;;;;;;11.38;5.22;;;18.60;26.70;;;;;;4959200;29;20265;-80
2022/05/04 12:25:23;;;;;;;10.70;5.40;;;18.50;26.80;;;;;;4960367;29;20237;-80
2022/05/04 12:27:51;;;;;;;10.77;5.80;;;18.00;26.80;;;;;;4959454;28;20269;-80
2022/05/04 12:33:10;;;;;;;11.10;5.22;;;17.90;28.80;;;;;;4960529;29;20245;-80
2022/05/04 12:35:38;;;;;;;12.25;5.60;;;18.60;27.80;;;;;;4961978;29;20234;-80
2022/05/04 12:38:05;;;;;;;13.77;5.70;;;18.50;25.80;;;;;;4960962;29;20677;-81
2022/05/04 12:40:34;;;;;;;10.60;6.13;;;18.80;23.80;;;;;;4960840;29;20233;-81
2022/05/04 12:43:03;;;;;;;9.32;5.50;;;19.30;23.10;;;;;;4960913;29;20592;-80
2022/05/04 12:45:30;;;;;;;13.98;5.93;;;18.80;22.40;;;;;;4961438;29;20238;-81
2022/05/04 12:47:58;;;;;;;15.68;6.60;;;18.30;24.60;;;;;;4961037;29;20257;-80
2022/05/04 12:50:28;;;;;;;10.15;6.10;;;18.20;24.30;;;;;;4959859;28;20206;-80
2022/05/04 12:52:56;;;;;;;12.68;6.78;;;18.90;24.40;;;;;;4958863;28;20226;-80
2022/05/04 12:56:45;;;;;;;11.63;5.85;;;18.60;24.10;;;;;;4958291;28;20227;-80
2022/05/04 12:58:13;;;;;;;11.57;5.93;;;18.60;25.50;;;;;;4958066;29;20202;-81
2022/05/04 13:00:40;;;;;;;9.52;5.50;;;18.70;23.60;;;;;;4957458;28;20218;-81
2022/05/04 13:03:10;;;;;;;13.00;6.13;;;18.60;23.40;;;;;;4957669;29;20218;-80
2022/05/04 13:05:37;;;;;;;10.15;6.13;;;18.70;23.20;;;;;;4957489;28;20230;-80
2022/05/04 13:08:04;;;;;;;12.00;5.90;;;18.50;23.40;;;;;;4956724;29;20701;-80
2022/05/04 13:10:31;;;;;;;11.30;6.30;;;18.10;25.90;;;;;;4956669;29;20230;-80
2022/05/04 13:12:59;;;;;;;10.95;6.68;;;18.00;27.00;;;;;;4956330;28;20210;-80
2022/05/04 13:15:27;;;;;;;12.02;5.50;;;17.70;28.60;;;;;;4955597;28;20233;-80
2022/05/04 13:17:54;;;;;;;10.85;5.90;;;18.10;30.30;;;;;;4954904;29;20237;-80
2022/05/04 13:20:21;;;;;;;7.45;5.68;;;19.20;26.50;;;;;;4954726;29;20294;-81